createdAt,value
2022-12-18T00:01:18.017Z,44.50
2022-12-18T00:03:20.098Z,43.50
2022-12-18T00:05:22.145Z,38.17
2022-12-18T00:07:24.144Z,43.60
2022-12-18T00:09:26.129Z,40.22
2022-12-18T00:11:41.005Z,41.50
2022-12-18T00:13:43.893Z,43.45
2022-12-18T00:15:45.981Z,39.28
2022-12-18T00:17:48.045Z,38.85
2022-12-18T00:19:50.147Z,40.60
2022-12-18T00:21:52.091Z,38.85
2022-12-18T00:23:54.161Z,35.45
2022-12-18T00:25:56.479Z,44.38
2022-12-18T00:27:58.399Z,37.75
2022-12-18T00:30:00.302Z,39.50
2022-12-18T00:32:02.353Z,38.17
2022-12-18T00:34:04.664Z,42.17
2022-12-18T00:36:10.950Z,40.35
2022-12-18T00:38:12.871Z,37.30
2022-12-18T00:40:14.831Z,40.17
2022-12-18T00:42:19.791Z,40.80
2022-12-18T00:44:21.761Z,39.08
2022-12-18T00:46:23.664Z,37.88
2022-12-18T00:48:25.638Z,40.55
2022-12-18T00:50:27.964Z,45.17
2022-12-18T00:52:29.865Z,40.70
2022-12-18T00:54:31.885Z,37.65
2022-12-18T00:56:33.856Z,41.72
2022-12-18T00:58:36.861Z,39.97
2022-12-18T01:00:39.174Z,45.00
2022-12-18T01:02:42.185Z,43.05
2022-12-18T01:04:44.234Z,38.70
2022-12-18T01:06:46.680Z,41.63
2022-12-18T01:08:48.595Z,41.85
2022-12-18T01:10:50.632Z,40.55
2022-12-18T01:12:52.615Z,40.65
2022-12-18T01:14:54.546Z,41.45
2022-12-18T01:16:56.507Z,41.20
2022-12-18T01:18:58.569Z,36.92
2022-12-18T01:21:00.456Z,37.90
2022-12-18T01:23:02.332Z,41.55
2022-12-18T01:25:05.680Z,41.35
2022-12-18T01:27:07.919Z,38.63
2022-12-18T01:29:09.928Z,36.85
2022-12-18T01:31:14.812Z,37.75
2022-12-18T01:33:16.859Z,38.10
2022-12-18T01:35:19.008Z,40.88
2022-12-18T01:37:20.992Z,48.92
2022-12-18T01:39:22.925Z,42.28
2022-12-18T01:41:27.178Z,41.78
2022-12-18T01:43:41.087Z,40.75
2022-12-18T01:45:43.467Z,40.85
2022-12-18T01:47:52.640Z,46.70
2022-12-18T01:49:56.248Z,39.53
2022-12-18T01:51:58.378Z,40.03
2022-12-18T01:54:01.155Z,39.35
2022-12-18T01:56:03.274Z,37.53
2022-12-18T01:58:05.864Z,36.42
2022-12-18T02:00:14.785Z,39.45
2022-12-18T02:02:18.913Z,39.40
2022-12-18T02:04:23.760Z,40.17
2022-12-18T02:06:35.545Z,37.83
2022-12-18T02:08:41.955Z,42.30
2022-12-18T02:10:49.387Z,41.22
2022-12-18T02:12:55.897Z,37.08
2022-12-18T02:15:01.527Z,37.40
2022-12-18T02:17:06.897Z,35.58
2022-12-18T02:19:21.102Z,37.33
2022-12-18T02:21:33.106Z,37.85
2022-12-18T02:23:38.866Z,38.30
2022-12-18T02:25:47.225Z,43.42
2022-12-18T02:27:52.231Z,32.75
2022-12-18T02:29:58.884Z,38.40
2022-12-18T02:32:01.886Z,33.95
2022-12-18T02:34:07.177Z,37.72
2022-12-18T02:36:10.716Z,40.70
2022-12-18T02:38:14.410Z,39.65
2022-12-18T02:40:18.384Z,34.03
2022-12-18T02:42:21.020Z,33.30
2022-12-18T02:44:22.994Z,35.90
2022-12-18T02:46:30.385Z,34.42
2022-12-18T02:48:35.005Z,37.85
2022-12-18T02:50:41.676Z,35.50
2022-12-18T02:52:52.577Z,37.15
2022-12-18T02:55:00.721Z,35.92
2022-12-18T02:57:15.112Z,36.20
2022-12-18T02:59:25.040Z,39.92
2022-12-18T03:01:33.325Z,33.47
2022-12-18T03:03:42.365Z,31.00
2022-12-18T03:05:51.473Z,32.15
2022-12-18T03:07:59.675Z,34.63
2022-12-18T03:10:02.487Z,35.85
2022-12-18T03:12:14.495Z,30.23
2022-12-18T03:14:18.664Z,30.13
2022-12-18T03:16:25.933Z,31.92
2022-12-18T03:18:37.228Z,40.22
2022-12-18T03:20:44.062Z,31.27
2022-12-18T03:22:51.100Z,29.90
2022-12-18T03:24:55.207Z,33.33
2022-12-18T03:27:03.045Z,33.75
2022-12-18T03:29:10.193Z,31.60
2022-12-18T03:31:15.249Z,34.95
2022-12-18T03:33:26.495Z,32.50
2022-12-18T03:35:32.605Z,34.20
2022-12-18T03:37:34.946Z,30.30
2022-12-18T03:39:37.798Z,30.48
2022-12-18T03:41:46.208Z,30.52
2022-12-18T03:43:52.672Z,27.48
2022-12-18T03:46:04.126Z,32.75
2022-12-18T03:48:12.375Z,27.02
2022-12-18T03:50:20.593Z,29.77
2022-12-18T03:52:29.505Z,31.75
2022-12-18T03:54:34.673Z,27.58
2022-12-18T03:56:45.503Z,26.77
2022-12-18T04:00:52.780Z,30.90
2022-12-18T04:02:57.020Z,26.63
2022-12-18T04:05:02.797Z,29.08
2022-12-18T04:07:05.743Z,28.73
2022-12-18T04:09:08.046Z,26.30
2022-12-18T04:11:10.354Z,29.38
2022-12-18T04:13:12.279Z,27.20
2022-12-18T04:15:14.721Z,29.70
2022-12-18T04:17:16.636Z,30.10
2022-12-18T04:19:18.849Z,30.67
2022-12-18T04:21:21.554Z,22.77
2022-12-18T04:23:23.604Z,25.73
2022-12-18T04:25:25.873Z,28.40
2022-12-18T04:27:27.767Z,26.40
2022-12-18T04:29:29.745Z,22.45
2022-12-18T04:31:32.281Z,25.67
2022-12-18T04:33:34.268Z,25.27
2022-12-18T04:35:36.186Z,31.17
2022-12-18T04:37:38.074Z,24.02
2022-12-18T04:39:40.228Z,23.45
2022-12-18T04:41:42.368Z,24.77
2022-12-18T04:43:44.447Z,26.80
2022-12-18T04:45:46.352Z,24.75
2022-12-18T04:47:48.265Z,27.25
2022-12-18T04:49:50.159Z,24.73
2022-12-18T04:51:52.870Z,29.08
2022-12-18T04:53:55.166Z,24.65
2022-12-18T04:56:08.864Z,27.48
2022-12-18T04:58:10.801Z,26.65
2022-12-18T05:00:13.844Z,29.48
2022-12-18T05:02:15.877Z,29.17
2022-12-18T05:04:17.894Z,24.23
2022-12-18T05:06:19.995Z,29.80
2022-12-18T05:08:21.911Z,27.00
2022-12-18T05:10:23.859Z,30.40
2022-12-18T05:12:25.796Z,27.90
2022-12-18T05:14:28.712Z,27.48
2022-12-18T05:16:30.776Z,28.20
2022-12-18T05:18:32.991Z,30.17
2022-12-18T05:20:34.960Z,30.10
2022-12-18T05:22:36.866Z,28.35
2022-12-18T05:24:38.784Z,26.33
2022-12-18T05:26:40.744Z,29.73
2022-12-18T05:28:43.766Z,33.15
2022-12-18T05:30:50.936Z,35.13
2022-12-18T05:32:52.853Z,26.70
2022-12-18T05:34:55.645Z,27.20
2022-12-18T05:36:57.628Z,25.98
2022-12-18T05:38:59.530Z,30.65
2022-12-18T05:41:01.541Z,26.40
2022-12-18T05:43:03.514Z,27.77
2022-12-18T05:45:06.762Z,24.85
2022-12-18T05:47:08.629Z,29.50
2022-12-18T05:49:10.508Z,26.10
2022-12-18T05:51:15.653Z,33.28
2022-12-18T05:53:19.407Z,27.80
2022-12-18T05:55:21.247Z,26.80
2022-12-18T05:57:23.133Z,32.58
2022-12-18T05:59:25.188Z,26.38
2022-12-18T06:01:27.899Z,26.25
2022-12-18T06:03:33.889Z,29.52
2022-12-18T06:05:38.468Z,31.30
2022-12-18T06:07:40.379Z,27.25
2022-12-18T06:09:42.517Z,27.65
2022-12-18T06:11:44.459Z,31.42
2022-12-18T06:13:47.509Z,25.42
2022-12-18T06:15:49.627Z,28.80
2022-12-18T06:17:51.629Z,27.77
2022-12-18T06:19:53.500Z,25.02
2022-12-18T06:21:55.590Z,27.23
2022-12-18T06:23:57.940Z,29.35
2022-12-18T06:26:00.244Z,25.88
2022-12-18T06:28:02.233Z,28.70
2022-12-18T06:30:04.863Z,26.67
2022-12-18T06:32:06.796Z,27.00
2022-12-18T06:34:08.739Z,30.92
2022-12-18T06:36:13.577Z,25.20
2022-12-18T06:38:15.484Z,30.33
2022-12-18T06:40:17.618Z,29.35
2022-12-18T06:42:19.642Z,30.75
2022-12-18T06:44:21.613Z,32.30
2022-12-18T06:46:23.518Z,28.45
2022-12-18T06:48:25.385Z,26.27
2022-12-18T06:50:27.663Z,28.25
2022-12-18T06:52:29.684Z,28.35
2022-12-18T06:54:31.611Z,29.98
2022-12-18T06:56:33.564Z,31.15
2022-12-18T06:58:35.452Z,32.83
2022-12-18T07:00:37.469Z,26.80
2022-12-18T07:02:39.511Z,30.17
2022-12-18T07:04:41.509Z,27.27
2022-12-18T07:06:43.472Z,27.10
2022-12-18T07:08:46.492Z,28.80
2022-12-18T07:10:54.433Z,31.00
2022-12-18T07:12:58.168Z,28.73
2022-12-18T07:15:00.089Z,28.52
2022-12-18T07:17:02.308Z,27.95
2022-12-18T07:19:04.681Z,25.55
2022-12-18T07:21:08.105Z,28.35
2022-12-18T07:23:09.948Z,26.00
2022-12-18T07:25:11.879Z,28.98
2022-12-18T07:27:13.783Z,27.45
2022-12-18T07:29:15.711Z,28.95
2022-12-18T07:31:21.596Z,31.20
2022-12-18T07:33:23.889Z,35.25
2022-12-18T07:35:25.849Z,29.67
2022-12-18T07:37:27.884Z,28.10
2022-12-18T07:39:29.800Z,26.80
2022-12-18T07:41:32.697Z,30.67
2022-12-18T07:43:35.530Z,28.95
2022-12-18T07:45:37.500Z,25.98
2022-12-18T07:47:39.501Z,31.58
2022-12-18T07:49:41.483Z,33.67
2022-12-18T07:51:43.386Z,27.27
2022-12-18T07:53:45.503Z,27.90
2022-12-18T07:56:25.033Z,29.67
2022-12-18T07:58:10.009Z,28.55
2022-12-18T08:00:13.440Z,29.23
2022-12-18T08:02:15.976Z,27.67
2022-12-18T08:04:18.152Z,27.15
2022-12-18T08:06:23.848Z,30.10
2022-12-18T08:08:26.574Z,28.42
2022-12-18T08:10:28.616Z,36.05
2022-12-18T08:12:30.550Z,28.85
2022-12-18T08:14:32.446Z,31.20
2022-12-18T08:16:34.442Z,33.35
2022-12-18T08:18:37.743Z,29.08
2022-12-18T08:20:39.651Z,29.75
2022-12-18T08:22:42.892Z,25.38
2022-12-18T08:24:44.777Z,27.02
2022-12-18T08:27:01.040Z,31.98
2022-12-18T08:29:09.894Z,30.92
2022-12-18T08:31:12.074Z,30.98
2022-12-18T08:33:14.027Z,29.25
2022-12-18T08:35:18.735Z,27.42
2022-12-18T08:37:20.811Z,28.60
2022-12-18T08:39:22.764Z,27.15
2022-12-18T08:41:24.858Z,26.85
2022-12-18T08:43:30.413Z,28.85
2022-12-18T08:45:32.349Z,27.27
2022-12-18T08:47:34.279Z,29.42
2022-12-18T08:49:36.806Z,29.80
2022-12-18T08:51:39.931Z,31.30
2022-12-18T08:53:42.475Z,32.15
2022-12-18T08:55:49.974Z,24.80
2022-12-18T08:57:52.397Z,37.03
2022-12-18T08:59:54.413Z,29.77
2022-12-18T09:01:56.637Z,30.92
2022-12-18T09:03:58.740Z,29.83
2022-12-18T09:06:00.944Z,30.67
2022-12-18T09:08:02.994Z,28.70
2022-12-18T09:10:06.286Z,26.42
2022-12-18T09:12:08.230Z,29.38
2022-12-18T09:14:11.409Z,26.40
2022-12-18T09:16:13.459Z,28.50
2022-12-18T09:18:17.194Z,27.88
2022-12-18T09:20:19.107Z,31.17
2022-12-18T09:22:20.987Z,31.23
2022-12-18T09:24:22.941Z,28.27
2022-12-18T09:26:26.272Z,28.38
2022-12-18T09:28:28.460Z,33.63
2022-12-18T09:30:30.491Z,25.40
2022-12-18T09:32:32.484Z,34.25
2022-12-18T09:34:34.429Z,30.85
2022-12-18T09:36:36.527Z,28.52
2022-12-18T09:38:38.892Z,26.17
2022-12-18T09:40:49.354Z,26.67
2022-12-18T09:42:58.724Z,28.65
2022-12-18T09:45:01.316Z,31.92
2022-12-18T09:47:07.517Z,32.42
2022-12-18T09:49:14.758Z,31.33
2022-12-18T09:51:25.830Z,34.78
2022-12-18T09:53:31.876Z,32.28
2022-12-18T09:55:38.853Z,30.15
2022-12-18T09:57:46.616Z,32.38
2022-12-18T09:59:56.211Z,29.70
2022-12-18T10:01:58.599Z,32.13
2022-12-18T10:04:02.320Z,32.05
2022-12-18T10:06:10.486Z,28.08
2022-12-18T10:08:18.628Z,31.13
2022-12-18T10:10:31.129Z,28.50
2022-12-18T10:12:43.607Z,28.17
2022-12-18T10:14:51.808Z,30.30
2022-12-18T10:17:03.417Z,29.90
2022-12-18T10:19:15.475Z,29.55
2022-12-18T10:21:23.025Z,28.52
2022-12-18T10:23:32.214Z,27.45
2022-12-18T10:25:40.431Z,32.65
2022-12-18T10:27:42.592Z,30.70
2022-12-18T10:29:46.702Z,29.13
2022-12-18T10:31:48.658Z,27.23
2022-12-18T10:33:50.763Z,29.65
2022-12-18T10:35:53.827Z,32.38
2022-12-18T10:38:01.675Z,33.00
2022-12-18T10:40:10.117Z,32.38
2022-12-18T10:42:19.327Z,28.15
2022-12-18T10:44:23.399Z,29.40
2022-12-18T10:46:25.502Z,28.35
2022-12-18T10:48:28.344Z,29.25
2022-12-18T10:53:00.028Z,28.73
2022-12-18T10:55:05.194Z,29.20
2022-12-18T10:57:13.431Z,29.27
2022-12-18T10:59:18.452Z,26.60
2022-12-18T11:01:21.956Z,26.98
2022-12-18T11:03:30.427Z,29.15
2022-12-18T11:05:35.132Z,28.50
2022-12-18T11:07:43.254Z,30.10
2022-12-18T11:10:01.717Z,27.02
2022-12-18T11:12:09.980Z,25.58
2022-12-18T11:14:22.296Z,29.98
2022-12-18T11:16:25.143Z,27.63
2022-12-18T11:18:29.828Z,31.75
2022-12-18T11:20:33.687Z,24.27
2022-12-18T11:22:37.555Z,26.50
2022-12-18T11:24:41.071Z,26.48
2022-12-18T11:26:44.493Z,26.92
2022-12-18T11:28:52.854Z,34.40
2022-12-18T11:31:01.141Z,35.88
2022-12-18T11:33:08.286Z,31.27
2022-12-18T11:35:13.756Z,33.10
2022-12-18T11:37:20.536Z,33.65
2022-12-18T11:39:35.455Z,34.13
2022-12-18T11:41:49.668Z,28.50
2022-12-18T11:43:56.983Z,33.30
2022-12-18T11:46:07.046Z,30.80
2022-12-18T11:48:18.004Z,34.55
2022-12-18T11:50:25.092Z,37.20
2022-12-18T11:52:33.220Z,31.65
2022-12-18T11:54:38.165Z,31.50
2022-12-18T11:56:49.361Z,33.13
2022-12-18T11:58:58.081Z,28.17
2022-12-18T12:01:20.794Z,34.58
2022-12-18T12:03:32.573Z,28.10
2022-12-18T12:05:44.294Z,30.00
2022-12-18T12:07:46.934Z,31.38
2022-12-18T12:09:55.129Z,29.88
2022-12-18T12:12:01.576Z,36.75
2022-12-18T12:14:08.049Z,31.60
2022-12-18T12:16:14.571Z,32.15
2022-12-18T12:18:21.857Z,36.67
2022-12-18T12:20:43.408Z,30.02
2022-12-18T12:22:49.896Z,31.20
2022-12-18T12:24:53.606Z,33.35
2022-12-18T12:27:01.829Z,36.22
2022-12-18T12:29:19.415Z,29.48
2022-12-18T12:31:24.970Z,30.63
2022-12-18T12:33:33.433Z,28.55
2022-12-18T12:35:41.995Z,30.23
2022-12-18T12:37:50.114Z,33.90
2022-12-18T12:39:54.885Z,29.40
2022-12-18T12:42:00.944Z,34.67
2022-12-18T12:44:07.644Z,29.10
2022-12-18T12:46:13.242Z,28.77
2022-12-18T12:48:22.077Z,29.70
2022-12-18T12:50:24.688Z,30.45
2022-12-18T12:52:31.680Z,25.77
2022-12-18T12:54:35.723Z,27.77
2022-12-18T12:56:45.692Z,31.52
2022-12-18T12:58:52.202Z,26.20
2022-12-18T13:01:01.111Z,32.50
2022-12-18T13:03:05.121Z,30.40
2022-12-18T13:05:13.320Z,26.25
2022-12-18T13:07:22.390Z,28.00
2022-12-18T13:09:25.044Z,28.13
2022-12-18T13:11:34.856Z,28.35
2022-12-18T13:13:51.762Z,32.50
2022-12-18T13:16:00.811Z,28.65
2022-12-18T13:18:12.818Z,25.70
2022-12-18T13:20:16.647Z,28.48
2022-12-18T13:22:22.981Z,30.48
2022-12-18T13:24:30.813Z,26.83
2022-12-18T13:26:34.157Z,28.55
2022-12-18T13:28:42.349Z,27.95
2022-12-18T13:30:48.303Z,26.33
2022-12-18T13:33:13.843Z,24.92
2022-12-18T13:35:19.979Z,26.92
2022-12-18T13:37:30.995Z,27.65
2022-12-18T13:39:35.514Z,26.98
2022-12-18T13:41:38.385Z,26.70
2022-12-18T13:43:45.409Z,23.63
2022-12-18T13:46:00.960Z,25.67
2022-12-18T13:48:04.570Z,23.65
2022-12-18T13:50:21.286Z,26.63
2022-12-18T13:52:28.773Z,22.23
2022-12-18T13:54:37.072Z,24.00
2022-12-18T13:56:45.660Z,21.98
2022-12-18T13:59:04.149Z,21.60
2022-12-18T14:01:06.338Z,21.13
2022-12-18T14:03:22.383Z,22.63
2022-12-18T14:05:25.345Z,22.98
2022-12-18T14:07:34.550Z,20.77
2022-12-18T14:09:47.490Z,18.30
2022-12-18T14:11:51.586Z,20.38
2022-12-18T14:13:53.975Z,21.05
2022-12-18T14:15:57.488Z,18.67
2022-12-18T14:18:06.332Z,20.13
2022-12-18T14:20:15.769Z,19.70
2022-12-18T14:22:22.191Z,20.38
2022-12-18T14:24:24.206Z,17.98
2022-12-18T14:26:30.348Z,19.85
2022-12-18T14:28:32.977Z,23.20
2022-12-18T14:30:39.917Z,20.77
2022-12-18T14:32:41.899Z,20.38
2022-12-18T14:34:47.682Z,16.38
2022-12-18T14:36:53.376Z,18.13
2022-12-18T14:38:57.500Z,18.38
2022-12-18T14:41:02.513Z,19.27
2022-12-18T14:43:04.548Z,19.65
2022-12-18T14:45:14.356Z,15.63
2022-12-18T14:47:17.729Z,17.90
2022-12-18T14:49:26.084Z,20.50
2022-12-18T14:51:30.987Z,16.10
2022-12-18T14:53:38.456Z,15.25
2022-12-18T14:55:48.029Z,15.25
2022-12-18T14:57:54.120Z,15.05
2022-12-18T15:00:06.811Z,15.75
2022-12-18T15:02:18.098Z,17.17
2022-12-18T15:04:28.911Z,14.88
2022-12-18T15:06:34.424Z,15.75
2022-12-18T15:08:38.344Z,15.35
2022-12-18T15:10:48.937Z,14.45
2022-12-18T15:13:07.226Z,16.13
2022-12-18T15:15:15.652Z,16.33
2022-12-18T15:17:22.787Z,14.13
2022-12-18T15:19:35.769Z,15.65
2022-12-18T15:21:44.766Z,16.60
2022-12-18T15:23:50.507Z,15.85
2022-12-18T15:25:58.402Z,15.73
2022-12-18T15:28:01.195Z,17.30
2022-12-18T15:30:05.606Z,13.98
2022-12-18T15:32:20.544Z,13.15
2022-12-18T15:34:24.542Z,13.20
2022-12-18T15:36:27.338Z,14.07
2022-12-18T15:38:29.806Z,16.23
2022-12-18T15:40:32.310Z,12.65
2022-12-18T15:42:37.861Z,13.32
2022-12-18T15:44:40.664Z,14.52
2022-12-18T15:46:43.251Z,14.02
2022-12-18T15:48:48.124Z,14.02
2022-12-18T15:50:54.426Z,14.23
2022-12-18T15:52:57.645Z,14.70
2022-12-18T15:55:03.048Z,13.48
2022-12-18T15:57:08.528Z,16.83
2022-12-18T15:59:14.375Z,13.25
2022-12-18T16:01:17.405Z,13.13
2022-12-18T16:03:19.576Z,14.13
2022-12-18T16:05:26.018Z,14.20
2022-12-18T16:07:30.727Z,14.00
2022-12-18T16:09:33.304Z,13.30
2022-12-18T16:11:40.009Z,17.05
2022-12-18T16:13:42.576Z,15.70
2022-12-18T16:15:45.353Z,11.80
2022-12-18T16:17:49.405Z,13.88
2022-12-18T16:19:51.969Z,14.38
2022-12-18T16:21:57.040Z,11.20
2022-12-18T16:23:59.623Z,11.18
2022-12-18T16:26:02.056Z,15.15
2022-12-18T16:28:04.579Z,10.00
2022-12-18T16:30:08.315Z,12.15
2022-12-18T16:32:15.516Z,11.23
2022-12-18T16:34:24.928Z,10.25
2022-12-18T16:36:29.595Z,9.20
2022-12-18T16:38:32.040Z,10.43
2022-12-18T16:40:54.609Z,13.30
2022-12-18T16:42:57.099Z,9.88
2022-12-18T16:44:59.721Z,11.40
2022-12-18T16:47:03.483Z,9.13
2022-12-18T16:49:06.620Z,11.30
2022-12-18T16:51:09.689Z,11.48
2022-12-18T16:53:14.237Z,19.13
2022-12-18T16:55:16.882Z,13.18
2022-12-18T16:57:22.693Z,11.23
2022-12-18T16:59:28.359Z,9.23
2022-12-18T17:01:32.919Z,8.23
2022-12-18T17:03:35.787Z,9.52
2022-12-18T17:05:38.444Z,7.93
2022-12-18T17:07:40.954Z,8.55
2022-12-18T17:09:43.943Z,6.80
2022-12-18T17:11:46.680Z,5.63
2022-12-18T17:13:49.439Z,4.55
2022-12-18T17:15:52.072Z,7.82
2022-12-18T17:17:54.713Z,4.50
2022-12-18T17:19:59.295Z,3.70
2022-12-18T17:22:02.506Z,4.05
2022-12-18T17:24:06.140Z,4.55
2022-12-18T17:26:11.059Z,4.40
2022-12-18T17:28:13.761Z,3.80
2022-12-18T17:30:16.720Z,4.00
2022-12-18T17:32:19.459Z,4.60
2022-12-18T17:34:22.419Z,5.07
2022-12-18T17:36:28.932Z,4.25
2022-12-18T17:38:32.250Z,3.55
2022-12-18T17:40:35.267Z,4.07
2022-12-18T17:42:38.478Z,6.65
2022-12-18T17:44:43.120Z,4.45
2022-12-18T17:46:46.704Z,4.53
2022-12-18T17:48:50.225Z,3.83
2022-12-18T17:50:53.117Z,5.03
2022-12-18T17:52:58.180Z,4.03
2022-12-18T17:55:01.364Z,4.85
2022-12-18T17:57:04.640Z,5.80
2022-12-18T17:59:07.799Z,5.60
2022-12-18T18:01:10.401Z,6.15
2022-12-18T18:03:15.749Z,4.35
2022-12-18T18:05:17.986Z,5.15
2022-12-18T18:07:19.996Z,6.40
2022-12-18T18:09:22.246Z,5.18
2022-12-18T18:11:28.200Z,5.55
2022-12-18T18:13:38.662Z,4.80
2022-12-18T18:15:42.925Z,6.90
2022-12-18T18:17:45.253Z,3.92
2022-12-18T18:19:49.799Z,3.60
2022-12-18T18:21:53.900Z,4.55
2022-12-18T18:24:00.728Z,5.10
2022-12-18T18:26:05.984Z,4.25
2022-12-18T18:28:08.422Z,4.53
2022-12-18T18:30:11.849Z,4.72
2022-12-18T18:32:13.906Z,5.40
2022-12-18T18:34:18.164Z,5.60
2022-12-18T18:36:20.358Z,4.72
2022-12-18T18:38:22.625Z,4.82
2022-12-18T18:40:24.684Z,4.45
2022-12-18T18:42:30.541Z,7.93
2022-12-18T18:44:32.867Z,4.55
2022-12-18T18:46:34.902Z,10.65
2022-12-18T18:48:37.847Z,4.82
2022-12-18T18:50:44.222Z,3.65
2022-12-18T18:52:46.311Z,6.97
2022-12-18T18:55:11.469Z,4.60
2022-12-18T18:57:20.330Z,3.53
2022-12-18T18:59:31.248Z,6.47
2022-12-18T19:01:33.976Z,3.78
2022-12-18T19:03:38.297Z,4.75
2022-12-18T19:05:43.076Z,4.47
2022-12-18T19:07:48.223Z,5.43
2022-12-18T19:09:52.265Z,5.22
2022-12-18T19:11:57.265Z,5.25
2022-12-18T19:14:00.173Z,4.43
2022-12-18T19:16:06.250Z,6.65
2022-12-18T19:18:08.460Z,4.85
2022-12-18T19:20:12.416Z,5.45
2022-12-18T19:22:14.602Z,4.45
2022-12-18T19:24:16.673Z,4.95
2022-12-18T19:26:28.275Z,5.57
2022-12-18T19:28:31.385Z,4.25
2022-12-18T19:30:33.411Z,4.40
2022-12-18T19:32:35.579Z,5.22
2022-12-18T19:34:39.214Z,9.15
2022-12-18T19:36:42.322Z,4.97
2022-12-18T19:38:45.661Z,5.40
2022-12-18T19:40:48.746Z,4.45
2022-12-18T19:42:50.805Z,4.57
2022-12-18T19:44:52.780Z,4.45
2022-12-18T19:46:54.749Z,5.45
2022-12-18T19:48:56.708Z,5.93
2022-12-18T19:50:59.112Z,4.95
2022-12-18T19:53:01.287Z,5.85
2022-12-18T19:55:04.248Z,4.57
2022-12-18T19:57:08.199Z,6.93
2022-12-18T19:59:10.105Z,5.43
2022-12-18T20:01:16.394Z,5.57
2022-12-18T20:03:28.686Z,3.90
2022-12-18T20:05:33.973Z,5.55
2022-12-18T20:07:36.220Z,4.45
2022-12-18T20:09:38.485Z,4.00
2022-12-18T20:11:42.002Z,6.47
2022-12-18T20:13:45.005Z,9.35
2022-12-18T20:15:47.130Z,5.22
2022-12-18T20:17:49.247Z,4.55
2022-12-18T20:19:51.285Z,6.70
2022-12-18T20:21:53.932Z,7.72
2022-12-18T20:23:56.020Z,4.35
2022-12-18T20:25:58.090Z,7.60
2022-12-18T20:28:00.045Z,5.65
2022-12-18T20:30:02.291Z,6.30
2022-12-18T20:32:04.964Z,5.40
2022-12-18T20:34:07.092Z,4.88
2022-12-18T20:36:15.346Z,5.93
2022-12-18T20:38:18.586Z,4.70
2022-12-18T20:40:23.591Z,6.80
2022-12-18T20:42:25.674Z,7.47
2022-12-18T20:44:27.613Z,8.77
2022-12-18T20:46:30.156Z,5.18
2022-12-18T20:48:32.913Z,9.93
2022-12-18T20:50:34.949Z,7.10
2022-12-18T20:52:37.142Z,6.07
2022-12-18T20:54:39.060Z,5.72
2022-12-18T20:56:41.122Z,7.25
2022-12-18T20:58:50.901Z,4.78
2022-12-18T21:01:07.932Z,6.65
2022-12-18T21:03:12.533Z,5.32
2022-12-18T21:05:14.668Z,8.18
2022-12-18T21:07:16.750Z,4.05
2022-12-18T21:09:18.794Z,5.10
2022-12-18T21:11:24.594Z,7.63
2022-12-18T21:13:26.820Z,4.75
2022-12-18T21:15:31.590Z,7.85
2022-12-18T21:17:39.461Z,4.38
2022-12-18T21:19:46.796Z,11.07
2022-12-18T21:21:50.933Z,6.35
2022-12-18T21:23:53.338Z,6.53
2022-12-18T21:25:56.054Z,5.78
2022-12-18T21:27:58.437Z,4.22
2022-12-18T21:30:00.680Z,4.32
2022-12-18T21:32:03.850Z,4.53
2022-12-18T21:34:07.676Z,5.03
2022-12-18T21:36:10.427Z,6.43
2022-12-18T21:38:12.487Z,5.40
2022-12-18T21:40:14.630Z,2.88
2022-12-18T21:42:19.787Z,3.40
2022-12-18T21:44:22.215Z,5.22
2022-12-18T21:46:24.247Z,4.30
2022-12-18T21:48:26.247Z,4.65
2022-12-18T21:50:28.296Z,4.82
2022-12-18T21:52:32.091Z,5.50
2022-12-18T21:54:35.051Z,2.80
2022-12-18T21:56:43.135Z,5.40
2022-12-18T21:58:57.289Z,6.18
2022-12-18T22:00:59.617Z,4.65
2022-12-18T22:03:17.790Z,3.65
2022-12-18T22:05:21.003Z,7.10
2022-12-18T22:07:22.946Z,3.60
2022-12-18T22:09:25.898Z,4.57
2022-12-18T22:11:28.128Z,4.97
2022-12-18T22:13:30.322Z,6.25
2022-12-18T22:15:32.800Z,2.97
2022-12-18T22:17:34.830Z,3.17
2022-12-18T22:19:42.678Z,4.13
2022-12-18T22:21:47.692Z,4.30
2022-12-18T22:23:54.404Z,2.00
2022-12-18T22:25:56.964Z,2.50
2022-12-18T22:28:02.215Z,4.10
2022-12-18T22:30:05.545Z,4.68
2022-12-18T22:32:10.802Z,2.47
2022-12-18T22:34:14.549Z,1.88
2022-12-18T22:36:16.573Z,2.60
2022-12-18T22:38:20.332Z,2.42
2022-12-18T22:40:27.127Z,1.60
2022-12-18T22:42:29.153Z,2.75
2022-12-18T22:44:31.194Z,2.92
2022-12-18T22:46:36.967Z,2.70
2022-12-18T22:48:38.925Z,0.98
2022-12-18T22:50:41.168Z,2.35
2022-12-18T22:52:43.104Z,1.08
2022-12-18T22:54:46.484Z,2.13
2022-12-18T22:56:48.674Z,2.97
2022-12-18T22:58:52.742Z,1.38
2022-12-18T23:00:54.782Z,1.05
2022-12-18T23:03:00.689Z,1.52
2022-12-18T23:05:03.001Z,1.55
2022-12-18T23:07:05.758Z,3.15
2022-12-18T23:09:13.651Z,1.42
2022-12-18T23:11:16.787Z,4.72
2022-12-18T23:13:20.361Z,1.70
2022-12-18T23:15:27.946Z,6.10
2022-12-18T23:17:30.468Z,5.63
2022-12-18T23:19:32.532Z,3.72
2022-12-18T23:21:36.269Z,3.13
2022-12-18T23:23:39.173Z,5.03
2022-12-18T23:25:41.105Z,4.82
2022-12-18T23:27:43.190Z,4.18
2022-12-18T23:29:45.312Z,2.70
2022-12-18T23:31:49.378Z,2.42
2022-12-18T23:33:52.408Z,7.68
2022-12-18T23:35:59.142Z,5.05
2022-12-18T23:38:01.190Z,3.42
2022-12-18T23:40:03.702Z,5.20
2022-12-18T23:42:05.827Z,2.67
2022-12-18T23:44:07.729Z,4.82
2022-12-18T23:46:14.739Z,8.30
2022-12-18T23:48:16.709Z,3.53
2022-12-18T23:50:18.647Z,4.03
2022-12-18T23:52:20.630Z,4.35
2022-12-18T23:54:30.172Z,3.50
2022-12-18T23:56:35.944Z,3.17
2022-12-18T23:58:38.589Z,3.33
